sensor_id;sensor_type;location;lat;lon;timestamp;pressure;altitude;pressure_sealevel;temperature;humidity
51313;BME280;37397;53.226;10.400;2023-02-01T00:00:26;100728.47;;;6.36;72.97
51313;BME280;37397;53.226;10.400;2023-02-01T00:02:53;100729.69;;;6.35;72.54
51313;BME280;37397;53.226;10.400;2023-02-01T00:05:20;100718.03;;;6.33;72.88
51313;BME280;37397;53.226;10.400;2023-02-01T00:07:47;100719.97;;;6.36;72.95
51313;BME280;37397;53.226;10.400;2023-02-01T00:10:15;100711.44;;;6.36;72.84
51313;BME280;37397;53.226;10.400;2023-02-01T00:12:42;100701.03;;;6.33;72.51
51313;BME280;37397;53.226;10.400;2023-02-01T00:15:08;100700.91;;;6.36;72.49
51313;BME280;37397;53.226;10.400;2023-02-01T00:17:35;100699.31;;;6.35;72.42
51313;BME280;37397;53.226;10.400;2023-02-01T00:20:02;100700.66;;;6.31;72.62
51313;BME280;37397;53.226;10.400;2023-02-01T00:22:29;100700.66;;;6.31;72.51
51313;BME280;37397;53.226;10.400;2023-02-01T00:24:55;100702.25;;;6.32;72.59
51313;BME280;37397;53.226;10.400;2023-02-01T00:27:22;100692.06;;;6.34;72.48
51313;BME280;37397;53.226;10.400;2023-02-01T00:29:48;100702.94;;;6.36;72.57
51313;BME280;37397;53.226;10.400;2023-02-01T00:32:15;100691.25;;;6.34;72.40
51313;BME280;37397;53.226;10.400;2023-02-01T00:34:41;100692.84;;;6.35;72.63
51313;BME280;37397;53.226;10.400;2023-02-01T00:37:08;100693.75;;;6.32;72.53
51313;BME280;37397;53.226;10.400;2023-02-01T00:39:34;100700.91;;;6.36;72.67
51313;BME280;37397;53.226;10.400;2023-02-01T00:42:01;100682.41;;;6.32;72.70
51313;BME280;37397;53.226;10.400;2023-02-01T00:44:28;100696.00;;;6.37;72.70
51313;BME280;37397;53.226;10.400;2023-02-01T00:46:59;100697.28;;;6.36;72.61
51313;BME280;37397;53.226;10.400;2023-02-01T00:49:27;100694.09;;;6.34;72.91
51313;BME280;37397;53.226;10.400;2023-02-01T00:51:54;100692.84;;;6.35;72.66
51313;BME280;37397;53.226;10.400;2023-02-01T00:54:21;100694.44;;;6.36;72.78
51313;BME280;37397;53.226;10.400;2023-02-01T00:56:47;100700.13;;;6.36;72.51
51313;BME280;37397;53.226;10.400;2023-02-01T00:59:13;100696.13;;;6.33;72.69
51313;BME280;37397;53.226;10.400;2023-02-01T01:01:40;100689.56;;;6.36;72.69
51313;BME280;37397;53.226;10.400;2023-02-01T01:04:06;100673.13;;;6.31;72.78
51313;BME280;37397;53.226;10.400;2023-02-01T01:06:34;100681.84;;;6.37;72.76
51313;BME280;37397;53.226;10.400;2023-02-01T01:09:04;100692.84;;;6.35;72.62
51313;BME280;37397;53.226;10.400;2023-02-01T01:11:34;100689.56;;;6.36;72.49
51313;BME280;37397;53.226;10.400;2023-02-01T01:14:03;100679.00;;;6.37;72.53
51313;BME280;37397;53.226;10.400;2023-02-01T01:16:31;100669.28;;;6.38;72.84
51313;BME280;37397;53.226;10.400;2023-02-01T01:18:58;100688.28;;;6.37;72.59
51313;BME280;37397;53.226;10.400;2023-02-01T01:21:25;100673.34;;;6.37;72.92
51313;BME280;37397;53.226;10.400;2023-02-01T01:23:52;100669.41;;;6.34;72.76
51313;BME280;37397;53.226;10.400;2023-02-01T01:26:25;100676.97;;;6.37;72.75
51313;BME280;37397;53.226;10.400;2023-02-01T01:28:54;100653.75;;;6.30;72.66
51313;BME280;37397;53.226;10.400;2023-02-01T01:31:21;100669.59;;;6.40;72.83
51313;BME280;37397;53.226;10.400;2023-02-01T01:33:53;100669.59;;;6.40;72.88
51313;BME280;37397;53.226;10.400;2023-02-01T01:36:21;100669.59;;;6.40;72.82
51313;BME280;37397;53.226;10.400;2023-02-01T01:38:47;100668.34;;;6.41;72.77
51313;BME280;37397;53.226;10.400;2023-02-01T01:41:18;100663.47;;;6.42;72.83
51313;BME280;37397;53.226;10.400;2023-02-01T01:43:58;100664.25;;;6.42;72.78
51313;BME280;37397;53.226;10.400;2023-02-01T01:46:29;100651.34;;;6.41;72.72
51313;BME280;37397;53.226;10.400;2023-02-01T01:51:30;100633.53;;;6.41;72.58
51313;BME280;37397;53.226;10.400;2023-02-01T01:54:14;100635.91;;;6.42;72.81
51313;BME280;37397;53.226;10.400;2023-02-01T01:56:47;100625.50;;;6.39;72.75
51313;BME280;37397;53.226;10.400;2023-02-01T01:59:15;100633.06;;;6.42;72.61
51313;BME280;37397;53.226;10.400;2023-02-01T02:01:42;100632.63;;;6.44;72.62
51313;BME280;37397;53.226;10.400;2023-02-01T02:04:08;100610.75;;;6.44;72.69
51313;BME280;37397;53.226;10.400;2023-02-01T02:06:43;100607.25;;;6.40;72.52
51313;BME280;37397;53.226;10.400;2023-02-01T02:09:14;100617.22;;;6.45;72.58
51313;BME280;37397;53.226;10.400;2023-02-01T02:11:42;100604.28;;;6.44;72.47
51313;BME280;37397;53.226;10.400;2023-02-01T02:14:11;100613.91;;;6.46;72.50
51313;BME280;37397;53.226;10.400;2023-02-01T02:33:56;100567.56;;;6.40;72.72
51313;BME280;37397;53.226;10.400;2023-02-01T02:39:20;100557.47;;;6.39;72.44
51313;BME280;37397;53.226;10.400;2023-02-01T02:44:57;100571.88;;;6.45;72.51
51313;BME280;37397;53.226;10.400;2023-02-01T02:50:43;100572.31;;;6.43;72.65
51313;BME280;37397;53.226;10.400;2023-02-01T02:53:38;100560.97;;;6.43;72.70
51313;BME280;37397;53.226;10.400;2023-02-01T02:56:26;100549.66;;;6.43;72.53
51313;BME280;37397;53.226;10.400;2023-02-01T02:59:14;100551.69;;;6.43;72.85
51313;BME280;37397;53.226;10.400;2023-02-01T03:02:01;100559.06;;;6.40;72.81
51313;BME280;37397;53.226;10.400;2023-02-01T03:04:52;100562.22;;;6.42;72.36
51313;BME280;37397;53.226;10.400;2023-02-01T03:07:46;100546.03;;;6.43;72.75
51313;BME280;37397;53.226;10.400;2023-02-01T03:13:06;100549.31;;;6.41;72.77
51313;BME280;37397;53.226;10.400;2023-02-01T03:15:53;100538.91;;;6.38;72.70
51313;BME280;37397;53.226;10.400;2023-02-01T03:18:38;100541.94;;;6.44;72.75
51313;BME280;37397;53.226;10.400;2023-02-01T03:21:11;100545.56;;;6.44;72.91
51313;BME280;37397;53.226;10.400;2023-02-01T03:23:40;100540.22;;;6.46;72.92
51313;BME280;37397;53.226;10.400;2023-02-01T03:26:11;100536.16;;;6.47;73.02
51313;BME280;37397;53.226;10.400;2023-02-01T03:28:43;100528.09;;;6.46;72.92
51313;BME280;37397;53.226;10.400;2023-02-01T03:31:12;100519.94;;;6.48;73.12
51313;BME280;37397;53.226;10.400;2023-02-01T03:33:41;100537.72;;;6.48;73.12
51313;BME280;37397;53.226;10.400;2023-02-01T03:36:27;100549.19;;;6.45;72.88
51313;BME280;37397;53.226;10.400;2023-02-01T03:39:11;100527.28;;;6.45;72.67
51313;BME280;37397;53.226;10.400;2023-02-01T03:41:45;100527.97;;;6.49;72.82
51313;BME280;37397;53.226;10.400;2023-02-01T03:44:22;100515.03;;;6.48;72.91
51313;BME280;37397;53.226;10.400;2023-02-01T03:47:02;100515.63;;;6.43;72.89
51313;BME280;37397;53.226;10.400;2023-02-01T03:49:53;100516.09;;;6.42;73.14
51313;BME280;37397;53.226;10.400;2023-02-01T03:52:25;100524.47;;;6.45;73.02
51313;BME280;37397;53.226;10.400;2023-02-01T03:54:54;100544.19;;;6.49;73.24
51313;BME280;37397;53.226;10.400;2023-02-01T03:57:29;100532.97;;;6.45;73.43
51313;BME280;37397;53.226;10.400;2023-02-01T04:00:14;100544.88;;;6.40;73.28
51313;BME280;37397;53.226;10.400;2023-02-01T04:02:43;100566.97;;;6.45;73.46
51313;BME280;37397;53.226;10.400;2023-02-01T04:05:10;100563.81;;;6.43;73.26
51313;BME280;37397;53.226;10.400;2023-02-01T04:07:42;100555.63;;;6.45;73.14
51313;BME280;37397;53.226;10.400;2023-02-01T04:10:10;100523.69;;;6.45;73.20
51313;BME280;37397;53.226;10.400;2023-02-01T04:12:36;100510.41;;;6.42;73.46
51313;BME280;37397;53.226;10.400;2023-02-01T04:15:03;100506.91;;;6.37;73.47
51313;BME280;37397;53.226;10.400;2023-02-01T04:17:30;100511.19;;;6.42;73.30
51313;BME280;37397;53.226;10.400;2023-02-01T04:19:56;100506.34;;;6.43;73.29
51313;BME280;37397;53.226;10.400;2023-02-01T04:22:23;100510.41;;;6.42;72.90
51313;BME280;37397;53.226;10.400;2023-02-01T04:24:49;100502.38;;;6.40;73.19
51313;BME280;37397;53.226;10.400;2023-02-01T04:27:16;100496.72;;;6.40;73.23
51313;BME280;37397;53.226;10.400;2023-02-01T04:29:42;100491.50;;;6.38;72.95
51313;BME280;37397;53.226;10.400;2023-02-01T04:32:11;100483.78;;;6.39;72.92
51313;BME280;37397;53.226;10.400;2023-02-01T04:34:37;100485.66;;;6.33;72.86
51313;BME280;37397;53.226;10.400;2023-02-01T04:37:04;100491.97;;;6.37;72.92
51313;BME280;37397;53.226;10.400;2023-02-01T04:39:30;100494.47;;;6.35;72.81
51313;BME280;37397;53.226;10.400;2023-02-01T04:41:57;100482.47;;;6.31;72.94
51313;BME280;37397;53.226;10.400;2023-02-01T04:44:23;100480.31;;;6.35;73.00
51313;BME280;37397;53.226;10.400;2023-02-01T04:46:50;100488.13;;;6.31;72.76
51313;BME280;37397;53.226;10.400;2023-02-01T04:49:16;100481.22;;;6.32;73.16
51313;BME280;37397;53.226;10.400;2023-02-01T04:51:43;100481.81;;;6.27;72.87
51313;BME280;37397;53.226;10.400;2023-02-01T04:54:09;100484.06;;;6.32;73.25
51313;BME280;37397;53.226;10.400;2023-02-01T04:56:39;100476.00;;;6.30;73.00
51313;BME280;37397;53.226;10.400;2023-02-01T04:59:06;100481.81;;;6.27;73.21
51313;BME280;37397;53.226;10.400;2023-02-01T05:01:32;100483.50;;;6.24;73.17
51313;BME280;37397;53.226;10.400;2023-02-01T05:03:59;100472.19;;;6.24;73.42
51313;BME280;37397;53.226;10.400;2023-02-01T05:06:25;100477.06;;;6.24;73.10
51313;BME280;37397;53.226;10.400;2023-02-01T05:08:52;100470.63;;;6.23;73.30
51313;BME280;37397;53.226;10.400;2023-02-01T05:11:18;100469.34;;;6.24;73.13
51313;BME280;37397;53.226;10.400;2023-02-01T05:14:03;100478.63;;;6.25;73.00
51313;BME280;37397;53.226;10.400;2023-02-01T05:16:30;100477.97;;;6.20;72.98
51313;BME280;37397;53.226;10.400;2023-02-01T05:18:56;100473.91;;;6.22;73.38
51313;BME280;37397;53.226;10.400;2023-02-01T05:21:23;100473.22;;;6.17;73.27
51313;BME280;37397;53.226;10.400;2023-02-01T05:23:49;100464.41;;;6.15;73.02
51313;BME280;37397;53.226;10.400;2023-02-01T05:26:34;100469.16;;;6.18;73.15
51313;BME280;37397;53.226;10.400;2023-02-01T05:29:02;100460.31;;;6.16;73.13
51313;BME280;37397;53.226;10.400;2023-02-01T05:31:29;100456.22;;;6.17;73.38
51313;BME280;37397;53.226;10.400;2023-02-01T05:33:55;100451.34;;;6.18;73.26
51313;BME280;37397;53.226;10.400;2023-02-01T05:36:22;100450.56;;;6.17;73.21
51313;BME280;37397;53.226;10.400;2023-02-01T05:38:48;100440.16;;;6.14;73.31
51313;BME280;37397;53.226;10.400;2023-02-01T05:41:15;100458.75;;;6.15;73.29
51313;BME280;37397;53.226;10.400;2023-02-01T05:43:41;100474.47;;;6.16;73.22
51313;BME280;37397;53.226;10.400;2023-02-01T05:46:08;100475.88;;;6.12;73.36
51313;BME280;37397;53.226;10.400;2023-02-01T05:48:37;100500.09;;;6.13;73.42
51313;BME280;37397;53.226;10.400;2023-02-01T05:51:03;100508.16;;;6.14;73.45
51313;BME280;37397;53.226;10.400;2023-02-01T05:53:30;100502.16;;;6.12;73.21
51313;BME280;37397;53.226;10.400;2023-02-01T05:55:56;100474.28;;;6.11;73.29
51313;BME280;37397;53.226;10.400;2023-02-01T05:58:22;100462.63;;;6.09;73.24
51313;BME280;37397;53.226;10.400;2023-02-01T06:00:49;100464.66;;;6.08;73.35
51313;BME280;37397;53.226;10.400;2023-02-01T06:03:16;100460.81;;;6.02;73.21
51313;BME280;37397;53.226;10.400;2023-02-01T06:05:47;100456.28;;;6.05;73.08
51313;BME280;37397;53.226;10.400;2023-02-01T06:08:14;100465.09;;;6.07;73.15
51313;BME280;37397;53.226;10.400;2023-02-01T06:10:40;100459.25;;;6.01;73.26
51313;BME280;37397;53.226;10.400;2023-02-01T06:13:07;100463.19;;;6.03;73.61
51313;BME280;37397;53.226;10.400;2023-02-01T06:15:34;100479.84;;;6.01;72.96
51313;BME280;37397;53.226;10.400;2023-02-01T06:18:01;100471.81;;;6.00;73.29
51313;BME280;37397;53.226;10.400;2023-02-01T06:20:28;100484.41;;;5.99;73.20
51313;BME280;37397;53.226;10.400;2023-02-01T06:22:55;100492.09;;;5.98;73.02
51313;BME280;37397;53.226;10.400;2023-02-01T06:25:21;100490.97;;;5.96;72.95
51313;BME280;37397;53.226;10.400;2023-02-01T06:27:48;100489.03;;;5.93;73.12
51313;BME280;37397;53.226;10.400;2023-02-01T06:30:14;100483.72;;;5.95;73.11
51313;BME280;37397;53.226;10.400;2023-02-01T06:32:42;100483.38;;;5.93;73.10
51313;BME280;37397;53.226;10.400;2023-02-01T06:35:09;100484.63;;;5.92;72.96
51313;BME280;37397;53.226;10.400;2023-02-01T06:37:42;100468.22;;;5.87;73.02
51313;BME280;37397;53.226;10.400;2023-02-01T06:40:09;100451.44;;;5.79;72.79
51313;BME280;37397;53.226;10.400;2023-02-01T06:42:36;100462.22;;;5.84;72.97
51313;BME280;37397;53.226;10.400;2023-02-01T06:45:03;100460.97;;;5.85;72.79
51313;BME280;37397;53.226;10.400;2023-02-01T06:47:30;100457.94;;;5.80;72.64
51313;BME280;37397;53.226;10.400;2023-02-01T06:49:56;100459.84;;;5.83;72.77
51313;BME280;37397;53.226;10.400;2023-02-01T06:52:23;100466.75;;;5.82;73.01
51313;BME280;37397;53.226;10.400;2023-02-01T06:54:49;100475.69;;;5.80;73.00
51313;BME280;37397;53.226;10.400;2023-02-01T06:57:16;100470.50;;;5.79;72.55
51313;BME280;37397;53.226;10.400;2023-02-01T06:59:42;100464.97;;;5.75;72.51
51313;BME280;37397;53.226;10.400;2023-02-01T07:02:12;100482.28;;;5.77;72.70
51313;BME280;37397;53.226;10.400;2023-02-01T07:04:38;100482.84;;;5.72;72.71
51313;BME280;37397;53.226;10.400;2023-02-01T07:07:05;100486.59;;;5.69;72.81
51313;BME280;37397;53.226;10.400;2023-02-01T07:09:31;100492.25;;;5.69;73.02
51313;BME280;37397;53.226;10.400;2023-02-01T07:11:58;100481.25;;;5.71;72.91
51313;BME280;37397;53.226;10.400;2023-02-01T07:14:24;100486.16;;;5.71;73.12
51313;BME280;37397;53.226;10.400;2023-02-01T07:16:51;100480.25;;;5.65;72.90
51313;BME280;37397;53.226;10.400;2023-02-01T07:19:17;100487.84;;;5.68;73.02
51313;BME280;37397;53.226;10.400;2023-02-01T07:21:44;100487.06;;;5.68;73.27
51313;BME280;37397;53.226;10.400;2023-02-01T07:24:10;100487.50;;;5.66;73.19
51313;BME280;37397;53.226;10.400;2023-02-01T07:26:37;100454.13;;;5.61;73.41
51313;BME280;37397;53.226;10.400;2023-02-01T07:29:03;100466.09;;;5.65;73.56
51313;BME280;37397;53.226;10.400;2023-02-01T07:31:30;100463.72;;;5.63;73.08
51313;BME280;37397;53.226;10.400;2023-02-01T07:33:57;100467.03;;;5.62;73.35
51313;BME280;37397;53.226;10.400;2023-02-01T07:36:24;100472.34;;;5.60;73.66
51313;BME280;37397;53.226;10.400;2023-02-01T07:38:50;100452.53;;;5.60;73.86
51313;BME280;37397;53.226;10.400;2023-02-01T07:41:21;100466.09;;;5.65;73.95
51313;BME280;37397;53.226;10.400;2023-02-01T07:43:48;100464.22;;;5.62;73.98
51313;BME280;37397;53.226;10.400;2023-02-01T07:46:16;100467.03;;;5.62;74.08
51313;BME280;37397;53.226;10.400;2023-02-01T07:48:43;100471.88;;;5.61;73.98
51313;BME280;37397;53.226;10.400;2023-02-01T07:51:14;100473.94;;;5.61;74.16
51313;BME280;37397;53.226;10.400;2023-02-01T07:53:42;100468.59;;;5.63;74.16
51313;BME280;37397;53.226;10.400;2023-02-01T07:56:17;100462.16;;;5.62;74.46
51313;BME280;37397;53.226;10.400;2023-02-01T07:58:52;100468.59;;;5.63;74.32
51313;BME280;37397;53.226;10.400;2023-02-01T08:01:23;100466.56;;;5.63;74.82
51313;BME280;37397;53.226;10.400;2023-02-01T08:03:56;100469.38;;;5.63;74.79
51313;BME280;37397;53.226;10.400;2023-02-01T08:06:23;100459.44;;;5.59;74.79
51313;BME280;37397;53.226;10.400;2023-02-01T08:08:51;100474.25;;;5.63;74.61
51313;BME280;37397;53.226;10.400;2023-02-01T08:11:19;100472.56;;;5.65;74.74
51313;BME280;37397;53.226;10.400;2023-02-01T08:13:46;100476.50;;;5.68;74.85
51313;BME280;37397;53.226;10.400;2023-02-01T08:16:15;100472.13;;;5.67;74.92
51313;BME280;37397;53.226;10.400;2023-02-01T08:18:42;100449.13;;;5.65;75.31
51313;BME280;37397;53.226;10.400;2023-02-01T08:21:10;100448.19;;;5.68;75.66
51313;BME280;37397;53.226;10.400;2023-02-01T08:23:39;100469.63;;;5.69;75.49
51313;BME280;37397;53.226;10.400;2023-02-01T08:28:36;100467.91;;;5.72;75.44
51313;BME280;37397;53.226;10.400;2023-02-01T08:31:06;100454.22;;;5.70;75.50
51313;BME280;37397;53.226;10.400;2023-02-01T08:33:34;100469.84;;;5.75;75.41
51313;BME280;37397;53.226;10.400;2023-02-01T08:36:01;100456.59;;;5.72;75.46
51313;BME280;37397;53.226;10.400;2023-02-01T08:38:28;100465.88;;;5.72;75.62
51313;BME280;37397;53.226;10.400;2023-02-01T08:40:55;100474.56;;;5.78;75.51
51313;BME280;37397;53.226;10.400;2023-02-01T08:43:21;100464.06;;;5.78;75.58
51313;BME280;37397;53.226;10.400;2023-02-01T08:45:49;100487.47;;;5.79;75.57
51313;BME280;37397;53.226;10.400;2023-02-01T08:48:16;100485.78;;;5.81;75.89
51313;BME280;37397;53.226;10.400;2023-02-01T08:50:42;100476.94;;;5.79;75.96
51313;BME280;37397;53.226;10.400;2023-02-01T08:53:09;100489.72;;;5.84;75.67
51313;BME280;37397;53.226;10.400;2023-02-01T08:55:36;100482.38;;;5.87;76.02
51313;BME280;37397;53.226;10.400;2023-02-01T08:58:02;100474.47;;;5.81;76.16
51313;BME280;37397;53.226;10.400;2023-02-01T09:00:28;100476.72;;;5.87;76.26
51313;BME280;37397;53.226;10.400;2023-02-01T09:02:55;100483.47;;;5.89;76.32
51313;BME280;37397;53.226;10.400;2023-02-01T09:05:22;100472.97;;;5.90;76.20
51313;BME280;37397;53.226;10.400;2023-02-01T09:08:00;100463.66;;;5.89;76.38
51313;BME280;37397;53.226;10.400;2023-02-01T09:10:27;100449.84;;;5.91;76.42
51313;BME280;37397;53.226;10.400;2023-02-01T09:13:00;100461.84;;;5.95;76.51
51313;BME280;37397;53.226;10.400;2023-02-01T09:15:27;100446.88;;;5.95;76.43
51313;BME280;37397;53.226;10.400;2023-02-01T09:17:54;100460.16;;;5.98;76.61
51313;BME280;37397;53.226;10.400;2023-02-01T09:20:20;100476.25;;;6.01;76.49
51313;BME280;37397;53.226;10.400;2023-02-01T09:22:52;100468.53;;;6.01;76.27
51313;BME280;37397;53.226;10.400;2023-02-01T09:25:18;100464.91;;;6.01;76.56
51313;BME280;37397;53.226;10.400;2023-02-01T09:27:45;100467.03;;;6.10;76.16
51313;BME280;37397;53.226;10.400;2023-02-01T09:30:12;100472.03;;;6.06;76.52
51313;BME280;37397;53.226;10.400;2023-02-01T09:32:38;100476.66;;;6.12;76.28
51313;BME280;37397;53.226;10.400;2023-02-01T09:35:05;100473.50;;;6.10;76.26
51313;BME280;37397;53.226;10.400;2023-02-01T09:37:32;100474.94;;;6.15;76.34
51313;BME280;37397;53.226;10.400;2023-02-01T09:39:59;100470.06;;;6.15;76.36
51313;BME280;37397;53.226;10.400;2023-02-01T09:45:06;100478.13;;;6.17;76.44
51313;BME280;37397;53.226;10.400;2023-02-01T09:47:47;100473.22;;;6.17;76.42
51313;BME280;37397;53.226;10.400;2023-02-01T09:50:21;100471.84;;;6.22;76.08
51313;BME280;37397;53.226;10.400;2023-02-01T09:52:52;100467.56;;;6.17;76.69
51313;BME280;37397;53.226;10.400;2023-02-01T09:58:11;100481.13;;;6.23;76.49
51313;BME280;37397;53.226;10.400;2023-02-01T10:00:39;100491.22;;;6.24;76.24
51313;BME280;37397;53.226;10.400;2023-02-01T10:03:11;100474.56;;;6.26;76.34
51313;BME280;37397;53.226;10.400;2023-02-01T10:06:10;100481.81;;;6.27;76.40
51313;BME280;37397;53.226;10.400;2023-02-01T10:20:38;100492.75;;;6.37;76.53
51313;BME280;37397;53.226;10.400;2023-02-01T10:26:19;100504.75;;;6.42;76.06
51313;BME280;37397;53.226;10.400;2023-02-01T10:28:52;100507.13;;;6.43;76.47
51313;BME280;37397;53.226;10.400;2023-02-01T10:31:22;100484.78;;;6.45;76.64
51313;BME280;37397;53.226;10.400;2023-02-01T10:33:56;100487.59;;;6.45;76.59
51313;BME280;37397;53.226;10.400;2023-02-01T10:36:29;100498.03;;;6.48;76.63
51313;BME280;37397;53.226;10.400;2023-02-01T10:38:58;100500.09;;;6.48;76.56
51313;BME280;37397;53.226;10.400;2023-02-01T10:41:31;100493.03;;;6.52;76.55
51313;BME280;37397;53.226;10.400;2023-02-01T10:44:00;100487.38;;;6.52;76.59
51313;BME280;37397;53.226;10.400;2023-02-01T10:46:30;100486.56;;;6.52;76.41
51313;BME280;37397;53.226;10.400;2023-02-01T10:48:58;100478.25;;;6.57;76.38
51313;BME280;37397;53.226;10.400;2023-02-01T10:51:44;100462.16;;;6.54;76.48
51313;BME280;37397;53.226;10.400;2023-02-01T10:54:22;100450.38;;;6.56;76.57
51313;BME280;37397;53.226;10.400;2023-02-01T10:56:49;100460.66;;;6.63;76.56
51313;BME280;37397;53.226;10.400;2023-02-01T10:59:19;100451.34;;;6.62;76.54
51313;BME280;37397;53.226;10.400;2023-02-01T11:01:48;100429.47;;;6.63;76.57
51313;BME280;37397;53.226;10.400;2023-02-01T11:04:19;100436.56;;;6.67;76.64
51313;BME280;37397;53.226;10.400;2023-02-01T11:06:51;100424.47;;;6.67;76.74
51313;BME280;37397;53.226;10.400;2023-02-01T11:09:19;100426.38;;;6.70;76.56
51313;BME280;37397;53.226;10.400;2023-02-01T11:14:16;100418.50;;;6.74;76.52
51313;BME280;37397;53.226;10.400;2023-02-01T11:19:46;100402.75;;;6.73;76.26
51313;BME280;37397;53.226;10.400;2023-02-01T11:22:13;100388.09;;;6.74;76.51
51313;BME280;37397;53.226;10.400;2023-02-01T11:24:44;100387.63;;;6.76;76.36
51313;BME280;37397;53.226;10.400;2023-02-01T11:27:17;100394.72;;;6.81;76.04
51313;BME280;37397;53.226;10.400;2023-02-01T11:29:57;100397.91;;;6.83;76.16
51313;BME280;37397;53.226;10.400;2023-02-01T11:32:26;100388.28;;;6.80;76.32
51313;BME280;37397;53.226;10.400;2023-02-01T11:34:56;100394.63;;;6.84;76.30
51313;BME280;37397;53.226;10.400;2023-02-01T11:38:15;100383.25;;;6.84;76.13
51313;BME280;37397;53.226;10.400;2023-02-01T11:43:01;100385.16;;;6.87;76.24
51313;BME280;37397;53.226;10.400;2023-02-01T11:45:33;100363.25;;;6.88;76.24
51313;BME280;37397;53.226;10.400;2023-02-01T11:48:01;100374.47;;;6.91;76.14
51313;BME280;37397;53.226;10.400;2023-02-01T11:50:40;100364.34;;;6.90;76.48
51313;BME280;37397;53.226;10.400;2023-02-01T11:53:19;100373.22;;;6.92;76.28
51313;BME280;37397;53.226;10.400;2023-02-01T11:55:56;100357.75;;;6.93;76.17
51313;BME280;37397;53.226;10.400;2023-02-01T11:59:07;100354.91;;;6.93;76.11
51313;BME280;37397;53.226;10.400;2023-02-01T12:06:52;100323.72;;;6.93;76.08
51313;BME280;37397;53.226;10.400;2023-02-01T12:09:46;100332.88;;;6.98;75.96
51313;BME280;37397;53.226;10.400;2023-02-01T12:17:53;100328.47;;;6.97;76.15
51313;BME280;37397;53.226;10.400;2023-02-01T12:28:49;100326.44;;;6.97;75.51
51313;BME280;37397;53.226;10.400;2023-02-01T12:34:44;100323.25;;;6.95;75.55
51313;BME280;37397;53.226;10.400;2023-02-01T12:37:48;100325.31;;;6.94;75.78
51313;BME280;37397;53.226;10.400;2023-02-01T12:43:39;100320.09;;;6.93;75.66
51313;BME280;37397;53.226;10.400;2023-02-01T12:46:19;100321.69;;;6.94;75.55
51313;BME280;37397;53.226;10.400;2023-02-01T12:49:05;100305.91;;;6.93;75.44
51313;BME280;37397;53.226;10.400;2023-02-01T12:51:38;100303.50;;;6.82;75.47
51313;BME280;37397;53.226;10.400;2023-02-01T12:56:43;100318.97;;;6.90;75.54
51313;BME280;37397;53.226;10.400;2023-02-01T12:59:33;100318.66;;;6.88;75.28
51313;BME280;37397;53.226;10.400;2023-02-01T13:02:14;100315.81;;;6.88;75.35
51313;BME280;37397;53.226;10.400;2023-02-01T13:07:27;100319.28;;;6.83;75.22
51313;BME280;37397;53.226;10.400;2023-02-01T13:09:59;100317.69;;;6.82;74.94
51313;BME280;37397;53.226;10.400;2023-02-01T13:12:33;100327.59;;;6.78;74.96
51313;BME280;37397;53.226;10.400;2023-02-01T13:15:14;100328.53;;;6.74;74.73
51313;BME280;37397;53.226;10.400;2023-02-01T13:17:44;100330.28;;;6.72;74.80
51313;BME280;37397;53.226;10.400;2023-02-01T13:20:31;100303.50;;;6.73;74.95
51313;BME280;37397;53.226;10.400;2023-02-01T13:23:05;100278.00;;;6.73;74.91
51313;BME280;37397;53.226;10.400;2023-02-01T13:25:45;100270.06;;;6.68;74.45
51313;BME280;37397;53.226;10.400;2023-02-01T13:31:19;100305.38;;;6.67;74.33
51313;BME280;37397;53.226;10.400;2023-02-01T13:40:17;100338.09;;;6.59;73.82
51313;BME280;37397;53.226;10.400;2023-02-01T13:42:49;100336.50;;;6.57;74.22
51313;BME280;37397;53.226;10.400;2023-02-01T13:45:21;100347.06;;;6.57;74.02
51313;BME280;37397;53.226;10.400;2023-02-01T13:47:51;100327.03;;;6.51;74.18
51313;BME280;37397;53.226;10.400;2023-02-01T13:52:58;100310.03;;;6.51;74.35
51313;BME280;37397;53.226;10.400;2023-02-01T13:55:34;100320.59;;;6.51;74.38
51313;BME280;37397;53.226;10.400;2023-02-01T13:58:10;100310.97;;;6.48;74.25
51313;BME280;37397;53.226;10.400;2023-02-01T14:00:41;100323.88;;;6.49;74.51
51313;BME280;37397;53.226;10.400;2023-02-01T14:03:13;100315.19;;;6.44;74.41
51313;BME280;37397;53.226;10.400;2023-02-01T14:08:11;100310.97;;;6.48;74.31
51313;BME280;37397;53.226;10.400;2023-02-01T14:21:33;100325.06;;;6.39;74.19
51313;BME280;37397;53.226;10.400;2023-02-01T14:32:02;100326.59;;;6.31;73.91
51313;BME280;37397;53.226;10.400;2023-02-01T14:42:43;100331.97;;;6.29;74.15
51313;BME280;37397;53.226;10.400;2023-02-01T14:55:48;100345.81;;;6.27;74.25
51313;BME280;37397;53.226;10.400;2023-02-01T14:58:45;100342.63;;;6.25;74.06
51313;BME280;37397;53.226;10.400;2023-02-01T15:01:25;100339.47;;;6.23;74.19
51313;BME280;37397;53.226;10.400;2023-02-01T15:04:06;100380.72;;;6.24;74.55
51313;BME280;37397;53.226;10.400;2023-02-01T15:06:58;100383.34;;;6.18;74.52
51313;BME280;37397;53.226;10.400;2023-02-01T15:09:33;100382.72;;;6.14;74.27
51313;BME280;37397;53.226;10.400;2023-02-01T15:14:46;100395.16;;;6.16;74.50
51313;BME280;37397;53.226;10.400;2023-02-01T15:17:21;100404.56;;;6.13;74.34
51313;BME280;37397;53.226;10.400;2023-02-01T15:19:59;100413.66;;;6.08;74.33
51313;BME280;37397;53.226;10.400;2023-02-01T15:22:34;100390.69;;;6.06;74.53
51313;BME280;37397;53.226;10.400;2023-02-01T15:25:01;100407.06;;;6.11;74.52
51313;BME280;37397;53.226;10.400;2023-02-01T15:27:29;100404.53;;;6.04;74.66
51313;BME280;37397;53.226;10.400;2023-02-01T15:30:08;100400.78;;;6.07;74.70
51313;BME280;37397;53.226;10.400;2023-02-01T15:32:37;100404.84;;;6.06;74.40
51313;BME280;37397;53.226;10.400;2023-02-01T15:35:38;100398.50;;;6.02;74.53
51313;BME280;37397;53.226;10.400;2023-02-01T15:43:31;100396.13;;;6.00;74.71